TN43 weather

Isle-A-Port STOLport
Memphis, Tennessee, United States

Public forecast

Using degrees Fahrenheit for public forecast. Weather courtesy of forecast.io.

Closest aviation weather report (METAR) to Isle-A-Port STOLport

Closest report is West Memphis Municipal Airport, 6.4 nm (11.8 km) WNW. Retrieved 2020/02/19 05:53 UTC (53 minutes ago):

KAWM 190553Z AUTO 02011KT 9SM OVC085 05/02 A3032 RMK AO2 SLP270 T00500022 10067 20050 401610050 50008

Closest aviation forecast (TAF) to Isle-A-Port STOLport

Closest forecast is Memphis International Airport, 7.5 nm (13.8 km) ESE. Retrieved 2020/02/19 06:22 UTC (24 minutes ago):

TAF KMEM 190520Z 1906/2012 03012KT P6SM SCT014 OVC080 FM191200 03012KT P6SM SCT025 OVC100 FM200000 04011KT P6SM FEW030 BKN100 FM200800 04011KT P6SM BKN045